createdAt,value
2023-01-17T00:02:14.515Z,94063.70
2023-01-17T00:05:01.018Z,94066.22
2023-01-17T00:07:49.365Z,94101.54
2023-01-17T00:10:21.062Z,94073.06
2023-01-17T00:12:55.772Z,94069.73
2023-01-17T00:15:25.328Z,94079.96
2023-01-17T00:17:54.541Z,94071.81
2023-01-17T00:20:43.498Z,94071.81
2023-01-17T00:23:41.627Z,94060.59
2023-01-17T00:26:16.843Z,94060.59
2023-01-17T00:28:45.647Z,94049.28
2023-01-17T00:31:15.658Z,94076.08
2023-01-17T00:33:43.938Z,94088.63
2023-01-17T00:36:12.749Z,94051.44
2023-01-17T00:38:43.922Z,94069.46
2023-01-17T00:41:15.018Z,94056.23
2023-01-17T00:44:04.638Z,94051.91
2023-01-17T00:46:51.293Z,94061.14
2023-01-17T00:49:37.899Z,94079.76
2023-01-17T00:52:26.785Z,94079.76
2023-01-17T00:55:13.342Z,94071.24
2023-01-17T00:57:59.715Z,94090.05
2023-01-17T01:00:46.280Z,94059.02
2023-01-17T01:03:33.300Z,94087.68
2023-01-17T01:06:24.584Z,94087.68
2023-01-17T01:09:11.308Z,94095.39
2023-01-17T01:12:00.671Z,94082.75
2023-01-17T01:14:51.984Z,94080.72
2023-01-17T01:17:38.822Z,94081.44
2023-01-17T01:20:26.931Z,94129.17
2023-01-17T01:23:24.505Z,94072.13
2023-01-17T01:26:15.955Z,94088.70
2023-01-17T01:29:02.893Z,94073.77
2023-01-17T01:31:49.246Z,94063.45
2023-01-17T01:34:18.134Z,94049.64
2023-01-17T01:36:47.244Z,94056.13
2023-01-17T01:39:22.879Z,94033.30
2023-01-17T01:41:54.756Z,94033.30
2023-01-17T01:45:13.025Z,94025.99
2023-01-17T01:47:42.415Z,94034.97
2023-01-17T01:50:19.579Z,94020.03
2023-01-17T01:52:54.741Z,94014.12
2023-01-17T01:55:32.682Z,94013.37
2023-01-17T01:58:04.675Z,93987.80
2023-01-17T02:00:36.752Z,94005.33
2023-01-17T02:03:08.549Z,93982.70
2023-01-17T02:05:39.147Z,94028.53
2023-01-17T02:08:12.677Z,94028.53
2023-01-17T02:11:02.456Z,93975.58
2023-01-17T02:13:43.796Z,93991.59
2023-01-17T02:16:30.874Z,93985.37
2023-01-17T02:19:20.115Z,93993.75
2023-01-17T02:22:08.414Z,94006.02
2023-01-17T02:24:49.092Z,94012.73
2023-01-17T02:27:43.404Z,94012.73
2023-01-17T02:30:27.083Z,94005.73
2023-01-17T02:33:18.673Z,93998.55
2023-01-17T02:36:08.136Z,93983.64
2023-01-17T02:38:41.370Z,93989.28
2023-01-17T02:41:18.805Z,94017.76
2023-01-17T02:43:53.618Z,94008.17
2023-01-17T02:46:26.126Z,94008.17
2023-01-17T02:48:59.760Z,94000.25
2023-01-17T02:52:03.405Z,94006.08
2023-01-17T02:55:11.024Z,93991.42
2023-01-17T02:58:02.048Z,93988.13
2023-01-17T03:00:54.838Z,93967.59
2023-01-17T03:03:43.869Z,93950.70
2023-01-17T03:06:24.132Z,93971.48
2023-01-17T03:08:54.501Z,93978.73
2023-01-17T03:11:26.587Z,93963.59
2023-01-17T03:13:59.810Z,93963.59
2023-01-17T03:16:31.488Z,93957.25
2023-01-17T03:19:01.890Z,93953.38
2023-01-17T03:21:30.916Z,93949.78
2023-01-17T03:24:01.177Z,93954.09
2023-01-17T03:26:30.282Z,93949.19
2023-01-17T03:28:58.966Z,93955.38
2023-01-17T03:31:27.705Z,93953.50
2023-01-17T03:33:56.474Z,93942.46
2023-01-17T03:36:25.081Z,93963.84
2023-01-17T03:38:53.774Z,93971.06
2023-01-17T03:41:55.000Z,93971.06
2023-01-17T03:44:24.276Z,93958.61
2023-01-17T03:46:53.145Z,93946.23
2023-01-17T03:49:21.817Z,93968.53
2023-01-17T03:51:50.406Z,93967.35
2023-01-17T03:54:20.501Z,93965.81
2023-01-17T03:56:49.143Z,93963.54
2023-01-17T03:59:19.294Z,93966.58
2023-01-17T04:01:48.168Z,93953.05
2023-01-17T04:04:17.142Z,93954.58
2023-01-17T04:06:47.666Z,93957.91
2023-01-17T04:09:16.342Z,93935.08
2023-01-17T04:11:44.935Z,93962.67
2023-01-17T04:14:13.600Z,93960.74
2023-01-17T04:16:42.355Z,93989.14
2023-01-17T04:19:14.215Z,93983.95
2023-01-17T04:21:45.846Z,94005.80
2023-01-17T04:24:31.411Z,93990.89
2023-01-17T04:26:54.468Z,94009.36
2023-01-17T04:29:36.263Z,94025.60
2023-01-17T04:35:04.888Z,93997.69
2023-01-17T04:37:39.390Z,93979.41
2023-01-17T04:40:12.957Z,93998.12
2023-01-17T04:43:00.192Z,93994.59
2023-01-17T04:45:32.413Z,93993.93
2023-01-17T04:48:26.264Z,94016.23
2023-01-17T04:51:13.506Z,94017.91
2023-01-17T04:53:46.383Z,94026.03
2023-01-17T04:56:22.814Z,94009.66
2023-01-17T04:58:53.503Z,94000.63
2023-01-17T05:01:25.458Z,94019.11
2023-01-17T05:04:08.062Z,94023.30
2023-01-17T05:06:40.708Z,94023.30
2023-01-17T05:09:09.603Z,94026.13
2023-01-17T05:11:42.195Z,94039.83
2023-01-17T05:14:14.763Z,94026.83
2023-01-17T05:16:46.005Z,94047.25
2023-01-17T05:19:16.174Z,94032.10
2023-01-17T05:21:49.487Z,94033.95
2023-01-17T05:24:19.032Z,94040.55
2023-01-17T05:26:50.354Z,94081.52
2023-01-17T05:29:22.267Z,94032.20
2023-01-17T05:31:51.965Z,94025.75
2023-01-17T05:34:23.828Z,94039.00
2023-01-17T05:37:05.103Z,94038.70
2023-01-17T05:39:36.690Z,94031.79
2023-01-17T05:42:05.753Z,94028.13
2023-01-17T05:44:38.852Z,94036.45
2023-01-17T05:47:07.467Z,94009.03
2023-01-17T05:49:36.225Z,94017.42
2023-01-17T05:52:05.036Z,94002.45
2023-01-17T05:54:33.664Z,94001.94
2023-01-17T05:57:02.463Z,94005.76
2023-01-17T05:59:37.309Z,94000.32
2023-01-17T06:02:07.310Z,93973.70
2023-01-17T06:04:36.212Z,93978.52
2023-01-17T06:07:04.914Z,94005.20
2023-01-17T06:09:33.516Z,93987.66
2023-01-17T06:12:02.181Z,93951.14
2023-01-17T06:14:30.987Z,93985.39
2023-01-17T06:16:59.824Z,93959.60
2023-01-17T06:19:28.722Z,93967.16
2023-01-17T06:21:57.437Z,93964.48
2023-01-17T06:24:26.188Z,93959.12
2023-01-17T06:27:00.732Z,93961.27
2023-01-17T06:29:29.441Z,93962.45
2023-01-17T06:32:00.280Z,93978.06
2023-01-17T06:34:30.313Z,93978.84
2023-01-17T06:36:59.260Z,93998.11
2023-01-17T06:39:27.847Z,93992.75
2023-01-17T06:41:56.594Z,93996.14
2023-01-17T06:44:26.300Z,94009.16
2023-01-17T06:46:55.417Z,94024.23
2023-01-17T06:49:29.872Z,94018.39
2023-01-17T06:52:12.633Z,94021.38
2023-01-17T06:55:04.887Z,94023.66
2023-01-17T06:58:09.656Z,94033.30
2023-01-17T07:09:54.238Z,94035.01
2023-01-17T07:12:25.997Z,94039.58
2023-01-17T07:15:00.564Z,94011.11
2023-01-17T07:17:34.033Z,94010.92
2023-01-17T07:20:07.904Z,94020.58
2023-01-17T07:22:38.484Z,94007.72
2023-01-17T07:25:19.560Z,94008.47
2023-01-17T07:27:46.189Z,94029.67
2023-01-17T07:30:17.531Z,94013.49
2023-01-17T07:32:56.928Z,94005.86
2023-01-17T07:35:27.387Z,94020.50
2023-01-17T07:38:16.829Z,94050.03
2023-01-17T07:40:52.679Z,93968.03
2023-01-17T07:43:33.177Z,94028.86
2023-01-17T07:46:05.829Z,94048.08
2023-01-17T07:48:45.257Z,94032.66
2023-01-17T07:51:22.836Z,94025.31
2023-01-17T07:53:57.560Z,94032.53
2023-01-17T07:56:35.658Z,94031.78
2023-01-17T07:59:05.152Z,94038.98
2023-01-17T08:01:41.553Z,94040.50
2023-01-17T08:04:15.052Z,94029.47
2023-01-17T08:07:04.270Z,94031.77
2023-01-17T08:09:36.259Z,94039.54
2023-01-17T08:12:12.120Z,94034.22
2023-01-17T08:15:12.312Z,94043.15
2023-01-17T08:17:53.742Z,94038.56
2023-01-17T08:20:28.133Z,94047.09
2023-01-17T08:26:18.069Z,93992.85
2023-01-17T08:28:47.105Z,94062.23
2023-01-17T08:31:21.449Z,94059.41
2023-01-17T08:33:56.901Z,94063.72
2023-01-17T08:36:31.412Z,94067.59
2023-01-17T08:39:18.378Z,94064.06
2023-01-17T08:41:51.184Z,94072.05
2023-01-17T08:44:23.341Z,94075.88
2023-01-17T08:46:58.509Z,94077.58
2023-01-17T08:49:32.928Z,94078.69
2023-01-17T08:52:05.322Z,94074.62
2023-01-17T08:54:49.566Z,94073.61
2023-01-17T08:57:20.670Z,94068.16
2023-01-17T08:59:52.153Z,94083.00
2023-01-17T09:02:23.666Z,94054.69
2023-01-17T09:04:55.561Z,94044.30
2023-01-17T09:07:28.738Z,94057.81
2023-01-17T09:10:02.990Z,94062.41
2023-01-17T09:12:36.363Z,94057.64
2023-01-17T09:15:05.780Z,94071.41
2023-01-17T09:17:34.588Z,94058.72
2023-01-17T09:20:07.866Z,94053.64
2023-01-17T09:22:50.653Z,94051.95
2023-01-17T09:25:23.489Z,94039.91
2023-01-17T09:28:12.415Z,94033.22
2023-01-17T09:30:42.999Z,94042.13
2023-01-17T09:33:11.808Z,94049.63
2023-01-17T09:35:43.580Z,94046.69
2023-01-17T09:38:12.747Z,94053.35
2023-01-17T09:40:47.508Z,94035.39
2023-01-17T09:43:23.424Z,94028.77
2023-01-17T09:45:57.756Z,94012.91
2023-01-17T09:48:34.990Z,94015.59
2023-01-17T09:51:30.511Z,94028.00
2023-01-17T10:00:03.457Z,94027.45
2023-01-17T10:00:38.008Z,94030.92
2023-01-17T10:03:47.321Z,94039.24
2023-01-17T10:06:34.070Z,94047.77
2023-01-17T10:09:27.745Z,94056.61
2023-01-17T10:12:10.760Z,94055.48
2023-01-17T10:14:54.618Z,94037.09
2023-01-17T10:17:48.892Z,94028.60
2023-01-17T10:21:06.972Z,94035.42
2023-01-17T10:23:49.163Z,94052.81
2023-01-17T10:30:37.333Z,94051.84
2023-01-17T10:33:15.072Z,94052.88
2023-01-17T10:35:58.836Z,94045.61
2023-01-17T10:38:40.881Z,94050.35
2023-01-17T10:41:18.521Z,94050.34
2023-01-17T10:43:55.955Z,94056.82
2023-01-17T10:46:28.692Z,94046.34
2023-01-17T10:48:58.375Z,94037.33
2023-01-17T10:51:51.588Z,94031.50
2023-01-17T10:54:25.841Z,94031.27
2023-01-17T10:56:54.795Z,94031.41
2023-01-17T10:59:39.807Z,94023.21
2023-01-17T11:02:11.914Z,94022.61
2023-01-17T11:04:43.353Z,94023.66
2023-01-17T11:07:21.228Z,94008.91
2023-01-17T11:09:55.309Z,94028.08
2023-01-17T11:12:32.845Z,94006.84
2023-01-17T11:15:13.461Z,94006.68
2023-01-17T11:17:52.705Z,93986.48
2023-01-17T11:20:24.499Z,93971.53
2023-01-17T11:23:14.037Z,93974.17
2023-01-17T11:25:53.086Z,93967.31
2023-01-17T11:38:10.470Z,93953.27
2023-01-17T12:04:21.831Z,93905.05
2023-01-17T12:47:48.146Z,93849.92
2023-01-17T12:50:44.041Z,93851.31
2023-01-17T12:53:23.934Z,93850.15
2023-01-17T12:55:55.628Z,93853.27
2023-01-17T12:58:30.182Z,93848.09
2023-01-17T13:01:15.785Z,93835.77
2023-01-17T13:35:10.629Z,93858.30
2023-01-17T13:35:12.512Z,93809.20
2023-01-17T13:38:03.215Z,93844.26
2023-01-17T13:41:06.548Z,93849.48
2023-01-17T13:43:41.314Z,93851.66
2023-01-17T13:46:22.551Z,93851.08
2023-01-17T13:52:41.167Z,93855.02
2023-01-17T13:55:22.807Z,93867.80
2023-01-17T13:57:55.988Z,93873.56
2023-01-17T14:00:32.009Z,93892.22
2023-01-17T14:03:03.214Z,93880.47
2023-01-17T14:09:02.086Z,93878.07
2023-01-17T14:11:44.041Z,93881.93
2023-01-17T14:14:50.565Z,93870.95
2023-01-17T14:17:28.622Z,93880.22
2023-01-17T14:20:08.331Z,93903.28
2023-01-17T14:22:58.537Z,93863.67
2023-01-17T14:25:32.618Z,93847.94
2023-01-17T14:28:07.336Z,93850.16
2023-01-17T14:30:39.291Z,93859.44
2023-01-17T14:33:21.295Z,93863.22
2023-01-17T14:35:52.972Z,93863.67
2023-01-17T14:38:30.129Z,93861.78
2023-01-17T14:41:22.680Z,93857.16
2023-01-17T14:43:52.327Z,93867.11
2023-01-17T14:46:29.662Z,93848.90
2023-01-17T14:49:03.969Z,93842.45
2023-01-17T14:51:38.136Z,93850.23
2023-01-17T14:54:24.178Z,93853.93
2023-01-17T14:56:53.534Z,93831.97
2023-01-17T14:59:30.041Z,93854.59
2023-01-17T15:02:08.973Z,93866.73
2023-01-17T15:04:40.689Z,93858.37
2023-01-17T15:07:12.321Z,93853.36
2023-01-17T15:09:44.913Z,93876.12
2023-01-17T15:12:14.951Z,93862.53
2023-01-17T15:14:48.089Z,93856.84
2023-01-17T15:17:24.310Z,93864.24
2023-01-17T15:20:06.280Z,93876.81
2023-01-17T15:22:56.795Z,93875.64
2023-01-17T15:25:22.425Z,93885.48
2023-01-17T15:27:57.201Z,93869.08
2023-01-17T15:30:23.617Z,93878.13
2023-01-17T15:32:58.767Z,93881.09
2023-01-17T15:35:28.899Z,93880.72
2023-01-17T15:38:05.280Z,93883.77
2023-01-17T15:40:35.751Z,93878.58
2023-01-17T15:43:09.144Z,93896.71
2023-01-17T15:45:38.053Z,93898.22
2023-01-17T15:48:30.399Z,93890.75
2023-01-17T15:54:24.741Z,93904.05
2023-01-17T15:57:11.239Z,93890.00
2023-01-17T16:00:13.820Z,93893.46
2023-01-17T16:03:01.378Z,93875.78
2023-01-17T16:05:33.331Z,93900.92
2023-01-17T16:08:07.916Z,93895.57
2023-01-17T16:11:16.340Z,93895.54
2023-01-17T19:00:27.858Z,93773.92
2023-01-17T19:02:58.681Z,93765.13
2023-01-17T19:05:27.459Z,93779.59
2023-01-17T19:07:56.660Z,93770.55
2023-01-17T19:10:25.973Z,93742.94
2023-01-17T19:25:48.381Z,93768.36
2023-01-17T19:28:17.370Z,93764.95
2023-01-17T19:30:46.562Z,93770.38
2023-01-17T19:33:17.792Z,93764.91
2023-01-17T19:35:52.907Z,93754.94
2023-01-17T19:38:21.731Z,93759.20
2023-01-17T19:40:54.828Z,93776.67
2023-01-17T19:43:24.771Z,93717.91
2023-01-17T19:46:45.349Z,93755.72
2023-01-17T19:49:15.740Z,93780.98
2023-01-17T19:52:03.994Z,93766.84
2023-01-17T19:54:42.738Z,93762.35
2023-01-17T20:03:04.489Z,93728.73
2023-01-17T20:05:37.680Z,93743.05
2023-01-17T20:08:09.269Z,93767.09
2023-01-17T20:10:38.068Z,93752.20
2023-01-17T20:13:06.877Z,93755.34
2023-01-17T20:15:39.223Z,93760.13
2023-01-17T20:18:12.730Z,93739.67
2023-01-17T20:20:56.212Z,93737.73
2023-01-17T20:23:15.536Z,93757.46
2023-01-17T20:26:07.983Z,93756.43
2023-01-17T20:34:55.146Z,93709.02
2023-01-17T20:37:25.972Z,93696.34
2023-01-17T20:39:59.380Z,93727.41
2023-01-17T20:42:40.068Z,93756.72
2023-01-17T20:45:24.121Z,93730.33
2023-01-17T20:47:53.263Z,93745.59
2023-01-17T20:50:29.057Z,93728.20
2023-01-17T20:53:00.070Z,93675.16
2023-01-17T20:56:14.974Z,93726.48
2023-01-17T20:58:25.987Z,93738.05
2023-01-17T21:00:56.812Z,93766.47
2023-01-17T21:06:18.614Z,93712.34
2023-01-17T21:08:48.992Z,93762.41
2023-01-17T21:11:20.765Z,93725.86
2023-01-17T21:13:50.022Z,93723.90
2023-01-17T21:16:35.627Z,93713.14
2023-01-17T21:19:13.615Z,93717.35
2023-01-17T21:21:42.415Z,93716.76
2023-01-17T21:24:12.898Z,93736.20
2023-01-17T21:26:47.665Z,93737.36
2023-01-17T21:29:16.393Z,93719.21
2023-01-17T21:31:49.995Z,93733.20
2023-01-17T21:34:35.058Z,93743.93
2023-01-17T21:40:19.214Z,93729.91
2023-01-17T21:42:48.369Z,93717.08
2023-01-17T21:48:19.555Z,93715.45
2023-01-17T21:48:54.014Z,93741.59
2023-01-17T21:54:09.714Z,93718.39
2023-01-17T21:56:56.115Z,93711.92
2023-01-17T21:59:24.838Z,93729.94
2023-01-17T22:01:53.435Z,93731.27
2023-01-17T22:04:24.008Z,93728.40
2023-01-17T22:06:56.061Z,93708.55
2023-01-17T22:09:27.414Z,93735.63
2023-01-17T22:11:56.097Z,93714.13
2023-01-17T22:14:33.529Z,93704.30
2023-01-17T22:17:09.455Z,93697.18
2023-01-17T22:19:46.470Z,93718.94
2023-01-17T22:22:20.552Z,93704.55
2023-01-17T22:25:13.250Z,93719.77
2023-01-17T22:31:44.163Z,93709.23
2023-01-17T22:34:25.133Z,93742.36
2023-01-17T22:40:20.339Z,93736.34
2023-01-17T22:42:58.118Z,93729.88
2023-01-17T22:45:36.900Z,93723.77
2023-01-17T22:48:29.106Z,93734.79
2023-01-17T22:51:15.971Z,93739.33
2023-01-17T22:54:32.898Z,93725.58
2023-01-17T22:59:45.348Z,93728.52
2023-01-17T23:02:31.396Z,93701.84
2023-01-17T23:08:02.200Z,93731.13
2023-01-17T23:10:47.216Z,93711.67
2023-01-17T23:13:15.998Z,93727.88
2023-01-17T23:16:03.918Z,93735.52
2023-01-17T23:18:50.104Z,93743.45
2023-01-17T23:21:24.773Z,93728.14
2023-01-17T23:23:53.517Z,93694.34
2023-01-17T23:26:25.566Z,93701.29
2023-01-17T23:28:57.776Z,93709.06
2023-01-17T23:31:49.493Z,93709.38
2023-01-17T23:34:23.337Z,93671.77
2023-01-17T23:36:52.271Z,93664.59
2023-01-17T23:39:21.465Z,93675.04
2023-01-17T23:42:08.214Z,93691.52
2023-01-17T23:44:36.746Z,93695.12
2023-01-17T23:47:17.057Z,93683.49
2023-01-17T23:49:47.339Z,93693.69
2023-01-17T23:52:16.737Z,93690.00
2023-01-17T23:54:45.671Z,93689.83
2023-01-17T23:57:14.300Z,93690.33
2023-01-17T23:59:43.068Z,93683.74
